createdAt,value
2023-03-29T01:32:16.038Z,99543.91
2023-03-29T01:34:02.301Z,99538.66
2023-03-29T01:35:43.848Z,99547.41
2023-03-29T01:37:24.848Z,99536.94
2023-03-29T01:39:00.694Z,99540.47
2023-03-29T01:40:34.381Z,99542.19
2023-03-29T01:42:31.225Z,99531.78
2023-03-29T01:44:11.235Z,99536.09
2023-03-29T01:45:48.734Z,99529.13
2023-03-29T01:47:31.494Z,99528.28
2023-03-29T01:49:11.328Z,99530.00
2023-03-29T01:50:50.385Z,99542.22
2023-03-29T01:52:27.239Z,99531.78
2023-03-29T01:54:05.913Z,99530.91
2023-03-29T01:55:44.301Z,99533.50
2023-03-29T01:57:20.097Z,99534.38
2023-03-29T01:58:57.455Z,99532.66
2023-03-29T02:00:31.564Z,99533.56
2023-03-29T02:02:11.434Z,99540.50
2023-03-29T02:03:51.021Z,99530.09
2023-03-29T02:05:26.605Z,99539.66
2023-03-29T02:07:08.953Z,99540.50
2023-03-29T02:08:43.225Z,99533.56
2023-03-29T02:10:18.683Z,99547.50
2023-03-29T02:11:53.150Z,99534.44
2023-03-29T02:13:27.416Z,99548.38
2023-03-29T02:15:01.010Z,99544.03
2023-03-29T02:16:40.511Z,99552.72
2023-03-29T02:18:15.782Z,99552.72
2023-03-29T02:19:56.187Z,99547.53
2023-03-29T02:21:33.872Z,99553.59
2023-03-29T02:23:16.045Z,99552.72
2023-03-29T02:24:52.759Z,99563.16
2023-03-29T02:26:29.249Z,99558.78
2023-03-29T02:28:05.796Z,99560.50
2023-03-29T02:29:39.424Z,99561.38
2023-03-29T02:31:20.312Z,99573.59
2023-03-29T02:32:59.694Z,99582.28
2023-03-29T02:34:37.688Z,99564.00
2023-03-29T02:36:19.692Z,99580.56
2023-03-29T02:37:56.145Z,99579.66
2023-03-29T02:39:32.336Z,99568.34
2023-03-29T02:41:07.080Z,99571.84
2023-03-29T02:42:40.821Z,99578.78
2023-03-29T02:44:18.474Z,99584.84
2023-03-29T02:45:53.580Z,99586.59
2023-03-29T02:47:34.782Z,99584.84
2023-03-29T02:49:08.473Z,99596.16
2023-03-29T02:50:44.317Z,99587.47
2023-03-29T02:52:24.073Z,99598.81
2023-03-29T02:54:03.273Z,99585.69
2023-03-29T02:55:37.038Z,99587.47
2023-03-29T02:57:10.482Z,99596.16
2023-03-29T02:58:46.510Z,99589.19
2023-03-29T03:00:24.189Z,99603.09
2023-03-29T03:02:00.171Z,99609.22
2023-03-29T03:03:35.967Z,99588.31
2023-03-29T03:05:10.061Z,99608.38
2023-03-29T03:06:43.312Z,99592.69
2023-03-29T03:08:18.787Z,99606.63
2023-03-29T03:09:55.884Z,99612.72
2023-03-29T03:11:29.352Z,99601.41
2023-03-29T03:13:03.243Z,99598.81
2023-03-29T03:14:38.137Z,99610.09
2023-03-29T03:16:11.612Z,99611.84
2023-03-29T03:17:46.788Z,99607.50
2023-03-29T03:19:20.531Z,99604.91
2023-03-29T03:20:59.249Z,99596.22
2023-03-29T03:22:35.232Z,99615.38
2023-03-29T03:24:10.492Z,99618.84
2023-03-29T03:25:46.317Z,99620.59
2023-03-29T03:27:21.419Z,99624.06
2023-03-29T03:28:55.140Z,99628.44
2023-03-29T03:30:46.770Z,99626.69
2023-03-29T03:32:38.717Z,99626.69
2023-03-29T03:34:30.544Z,99627.56
2023-03-29T03:36:07.175Z,99639.75
2023-03-29T03:37:42.997Z,99644.09
2023-03-29T03:39:18.568Z,99638.88
2023-03-29T03:40:55.346Z,99641.47
2023-03-29T03:42:29.592Z,99644.97
2023-03-29T03:44:02.540Z,99630.19
2023-03-29T03:45:36.324Z,99642.38
2023-03-29T03:47:22.333Z,99644.94
2023-03-29T03:48:55.726Z,99650.19
2023-03-29T03:50:35.328Z,99644.06
2023-03-29T03:52:08.916Z,99650.19
2023-03-29T03:53:42.442Z,99657.13
2023-03-29T03:55:37.004Z,99650.19
2023-03-29T03:57:17.785Z,99661.50
2023-03-29T03:58:56.771Z,99664.97
2023-03-29T04:00:30.004Z,99661.50
2023-03-29T04:02:28.316Z,99657.13
2023-03-29T04:04:02.218Z,99651.91
2023-03-29T04:05:40.422Z,99664.09
2023-03-29T04:07:14.462Z,99671.94
2023-03-29T04:08:48.404Z,99658.00
2023-03-29T04:10:31.828Z,99675.41
2023-03-29T04:12:20.125Z,99663.22
2023-03-29T04:13:53.710Z,99651.94
2023-03-29T04:15:40.077Z,99660.63
2023-03-29T04:17:18.470Z,99661.50
2023-03-29T04:19:27.304Z,99657.13
2023-03-29T04:21:01.086Z,99669.31
2023-03-29T04:22:35.395Z,99664.13
2023-03-29T04:24:09.735Z,99664.97
2023-03-29T04:25:45.757Z,99676.28
2023-03-29T04:27:58.989Z,99670.19
2023-03-29T04:29:45.046Z,99673.69
2023-03-29T04:31:27.958Z,99669.31
2023-03-29T04:33:21.572Z,99667.59
2023-03-29T04:35:01.740Z,99660.63
2023-03-29T04:36:35.625Z,99660.63
2023-03-29T04:38:11.515Z,99672.81
2023-03-29T04:39:46.062Z,99676.31
2023-03-29T04:41:20.072Z,99678.06
2023-03-29T04:43:12.405Z,99671.06
2023-03-29T04:44:54.843Z,99659.75
2023-03-29T04:46:43.053Z,99673.69
2023-03-29T04:48:37.754Z,99661.50
2023-03-29T04:50:11.704Z,99671.06
2023-03-29T04:51:48.974Z,99657.13
2023-03-29T04:53:26.292Z,99650.16
2023-03-29T04:54:59.913Z,99669.31
2023-03-29T04:56:53.410Z,99664.94
2023-03-29T04:58:48.492Z,99672.78
2023-03-29T05:00:27.185Z,99667.53
2023-03-29T05:02:20.886Z,99666.59
2023-03-29T05:03:56.914Z,99673.50
2023-03-29T05:05:35.647Z,99670.75
2023-03-29T05:07:08.498Z,99687.19
2023-03-29T05:10:49.243Z,99682.63
2023-03-29T05:12:29.573Z,99672.03
2023-03-29T05:14:07.434Z,99674.69
2023-03-29T05:15:41.932Z,99682.53
2023-03-29T05:17:15.918Z,99682.47
2023-03-29T05:18:51.795Z,99666.66
2023-03-29T05:20:26.069Z,99673.59
2023-03-29T05:22:00.209Z,99664.84
2023-03-29T05:23:34.386Z,99676.09
2023-03-29T05:25:13.827Z,99687.97
2023-03-29T05:26:51.761Z,99684.53
2023-03-29T05:28:26.257Z,99682.66
2023-03-29T05:30:01.511Z,99691.31
2023-03-29T05:32:01.417Z,99683.47
2023-03-29T05:33:36.698Z,99676.69
2023-03-29T05:35:12.049Z,99685.31
2023-03-29T05:36:46.547Z,99677.31
2023-03-29T05:38:20.401Z,99683.25
2023-03-29T05:39:54.931Z,99684.81
2023-03-29T05:41:42.749Z,99694.53
2023-03-29T05:43:37.553Z,99692.50
2023-03-29T05:45:13.082Z,99688.72
2023-03-29T05:46:47.293Z,99685.75
2023-03-29T05:48:24.511Z,99688.41
2023-03-29T05:49:58.115Z,99683.88
2023-03-29T05:51:33.349Z,99680.00
2023-03-29T05:53:06.678Z,99700.66
2023-03-29T05:54:40.020Z,99706.31
2023-03-29T05:56:16.402Z,99695.22
2023-03-29T05:57:50.262Z,99695.81
2023-03-29T05:59:28.797Z,99694.81
2023-03-29T06:01:05.735Z,99690.81
2023-03-29T06:03:17.710Z,99685.34
2023-03-29T06:04:55.564Z,99695.75
2023-03-29T06:06:28.978Z,99681.28
2023-03-29T06:08:02.554Z,99700.56
2023-03-29T06:09:59.076Z,99698.66
2023-03-29T06:11:33.257Z,99682.31
2023-03-29T06:13:23.532Z,99679.44
2023-03-29T06:14:58.532Z,99685.75
2023-03-29T06:16:43.652Z,99668.63
2023-03-29T06:18:17.890Z,99698.44
2023-03-29T06:19:53.312Z,99683.88
2023-03-29T06:21:30.463Z,99602.97
2023-03-29T06:23:04.972Z,99688.44
2023-03-29T06:24:38.125Z,99702.69
2023-03-29T06:26:17.996Z,99684.19
2023-03-29T06:27:52.305Z,99698.22
2023-03-29T06:29:26.828Z,99687.94
2023-03-29T06:31:03.081Z,99701.94
2023-03-29T06:32:43.290Z,99695.75
2023-03-29T06:34:43.296Z,99677.63
2023-03-29T06:36:45.949Z,99713.34
2023-03-29T06:38:20.973Z,99695.31
2023-03-29T06:40:14.474Z,99702.41
2023-03-29T06:41:49.953Z,99717.03
2023-03-29T06:43:46.112Z,99710.88
2023-03-29T06:45:24.646Z,99704.47
2023-03-29T06:47:00.151Z,99709.03
2023-03-29T06:48:35.173Z,99718.50
2023-03-29T06:50:09.476Z,99711.53
2023-03-29T06:51:50.713Z,99705.19
2023-03-29T06:53:24.506Z,99714.50
2023-03-29T06:55:03.089Z,99728.16
2023-03-29T06:56:36.354Z,99734.91
2023-03-29T06:58:14.093Z,99703.16
2023-03-29T06:59:47.800Z,99736.63
2023-03-29T07:01:25.274Z,99715.44
2023-03-29T07:03:10.664Z,99728.53
2023-03-29T07:04:46.663Z,99729.16
2023-03-29T07:06:33.786Z,99735.22
2023-03-29T07:08:14.143Z,99732.28
2023-03-29T07:09:58.255Z,99732.28
2023-03-29T07:12:10.837Z,99739.41
2023-03-29T07:13:44.976Z,99738.56
2023-03-29T07:15:25.819Z,99737.38
2023-03-29T07:17:34.390Z,99744.13
2023-03-29T07:19:09.220Z,99756.50
2023-03-29T07:20:59.248Z,99731.75
2023-03-29T07:22:32.739Z,99759.31
2023-03-29T07:24:10.284Z,99751.59
2023-03-29T07:25:44.771Z,99766.53
2023-03-29T07:27:18.845Z,99757.63
2023-03-29T07:28:55.205Z,99759.63
2023-03-29T07:30:31.866Z,99770.22
2023-03-29T07:32:19.006Z,99772.16
2023-03-29T07:33:53.726Z,99766.84
2023-03-29T07:35:27.969Z,99759.94
2023-03-29T07:37:03.209Z,99711.75
2023-03-29T07:38:38.078Z,99724.94
2023-03-29T07:40:23.819Z,99769.03
2023-03-29T07:42:03.593Z,99763.63
2023-03-29T07:43:37.065Z,99764.66
2023-03-29T07:45:11.411Z,99742.03
2023-03-29T07:47:00.543Z,99775.44
2023-03-29T07:48:34.240Z,99759.44
2023-03-29T07:50:12.350Z,99766.84
2023-03-29T07:51:45.769Z,99772.47
2023-03-29T07:53:23.252Z,99770.44
2023-03-29T07:54:58.997Z,99775.69
2023-03-29T07:56:51.099Z,99750.25
2023-03-29T07:58:45.096Z,99766.81
2023-03-29T08:00:20.418Z,99778.25
2023-03-29T08:02:11.913Z,99776.03
2023-03-29T08:03:48.314Z,99753.81
2023-03-29T08:05:37.514Z,99774.97
2023-03-29T08:07:19.356Z,99737.97
2023-03-29T08:09:14.402Z,99742.72
2023-03-29T08:10:50.199Z,99758.25
2023-03-29T08:12:53.669Z,99772.22
2023-03-29T08:14:34.376Z,99756.66
2023-03-29T08:16:22.192Z,99762.03
2023-03-29T08:18:02.556Z,99758.72
2023-03-29T08:19:35.880Z,99758.94
2023-03-29T08:21:11.782Z,99759.88
2023-03-29T08:22:45.464Z,99762.44
2023-03-29T08:24:39.075Z,99767.84
2023-03-29T08:26:15.958Z,99758.97
2023-03-29T08:27:50.060Z,99745.78
2023-03-29T08:29:33.332Z,99736.13
2023-03-29T08:31:08.667Z,99757.44
2023-03-29T08:32:43.697Z,99755.66
2023-03-29T08:34:17.238Z,99745.22
2023-03-29T08:35:51.214Z,99754.28
2023-03-29T08:37:32.821Z,99749.06
2023-03-29T08:39:06.985Z,99764.69
2023-03-29T08:40:41.980Z,99750.28
2023-03-29T08:42:29.807Z,99744.44
2023-03-29T08:44:15.526Z,99729.91
2023-03-29T08:46:11.904Z,99748.59
2023-03-29T08:47:56.973Z,99713.75
2023-03-29T08:49:32.296Z,99751.06
2023-03-29T08:51:16.298Z,99751.19
2023-03-29T08:52:56.108Z,99762.03
2023-03-29T08:55:05.874Z,99751.41
2023-03-29T08:57:06.683Z,99757.59
2023-03-29T08:58:46.851Z,99747.28
2023-03-29T09:00:25.797Z,99751.28
2023-03-29T09:02:01.445Z,99741.84
2023-03-29T09:03:40.026Z,99741.00
2023-03-29T09:05:27.039Z,99758.44
2023-03-29T09:07:10.234Z,99759.03
2023-03-29T09:08:49.826Z,99754.34
2023-03-29T09:10:36.795Z,99746.50
2023-03-29T09:12:22.688Z,99757.53
2023-03-29T09:14:10.265Z,99755.16
2023-03-29T09:15:52.602Z,99751.84
2023-03-29T09:17:52.208Z,99748.41
2023-03-29T09:19:35.896Z,99721.09
2023-03-29T09:21:18.317Z,99756.97
2023-03-29T09:23:01.893Z,99752.59
2023-03-29T09:24:54.709Z,99753.81
2023-03-29T09:26:39.173Z,99738.94
2023-03-29T09:28:39.040Z,99757.66
2023-03-29T09:30:25.959Z,99747.16
2023-03-29T09:32:21.046Z,99757.31
2023-03-29T09:33:59.877Z,99768.38
2023-03-29T09:35:54.934Z,99740.53
2023-03-29T09:37:33.894Z,99744.00
2023-03-29T09:39:08.578Z,99758.94
2023-03-29T09:40:48.723Z,99735.97
2023-03-29T09:42:29.577Z,99754.91
2023-03-29T09:44:12.755Z,99752.63
2023-03-29T09:45:59.261Z,99739.63
2023-03-29T09:47:37.449Z,99744.66
2023-03-29T09:49:21.832Z,99747.66
2023-03-29T09:50:55.965Z,99728.78
2023-03-29T09:52:29.733Z,99765.53
2023-03-29T09:54:13.019Z,99743.09
2023-03-29T09:56:07.150Z,99760.50
2023-03-29T09:57:47.857Z,99747.34
2023-03-29T09:59:23.044Z,99733.53
2023-03-29T10:00:59.983Z,99738.50
2023-03-29T10:02:34.291Z,99728.03
2023-03-29T10:04:09.254Z,99729.97
2023-03-29T10:05:47.622Z,99728.81
2023-03-29T10:07:24.274Z,99727.81
2023-03-29T10:09:06.335Z,99737.84
2023-03-29T10:10:45.659Z,99740.16
2023-03-29T10:12:19.061Z,99736.25
2023-03-29T10:13:57.470Z,99746.69
2023-03-29T10:15:33.266Z,99713.09
2023-03-29T10:17:13.056Z,99743.13
2023-03-29T10:18:47.537Z,99738.94
2023-03-29T10:20:21.195Z,99732.03
2023-03-29T10:21:56.257Z,99727.38
2023-03-29T10:23:33.711Z,99731.97
2023-03-29T10:25:14.767Z,99695.41
2023-03-29T10:26:49.435Z,99739.19
2023-03-29T10:28:24.901Z,99735.50
2023-03-29T10:30:00.911Z,99734.47
2023-03-29T10:31:38.253Z,99740.72
2023-03-29T10:33:18.906Z,99731.28
2023-03-29T10:34:54.363Z,99734.50
2023-03-29T10:36:28.599Z,99752.69
2023-03-29T10:38:06.608Z,99744.06
2023-03-29T10:39:41.614Z,99723.72
2023-03-29T10:41:23.653Z,99716.00
2023-03-29T10:43:00.712Z,99735.50
2023-03-29T10:44:37.011Z,99735.53
2023-03-29T10:46:13.379Z,99723.03
2023-03-29T10:47:49.937Z,99731.38
2023-03-29T10:49:25.628Z,99738.91
2023-03-29T10:51:00.132Z,99737.94
2023-03-29T10:52:34.641Z,99742.47
2023-03-29T10:54:13.009Z,99725.63
2023-03-29T10:55:53.271Z,99744.78
2023-03-29T10:57:34.913Z,99723.91
2023-03-29T10:59:27.827Z,99719.44
2023-03-29T11:01:02.037Z,99725.63
2023-03-29T11:03:00.485Z,99717.56
2023-03-29T11:04:42.640Z,99717.84
2023-03-29T11:06:25.618Z,99718.56
2023-03-29T11:08:12.622Z,99703.44
2023-03-29T11:09:54.626Z,99719.84
2023-03-29T11:11:44.218Z,99707.56
2023-03-29T11:13:27.297Z,99706.63
2023-03-29T11:15:15.071Z,99710.47
2023-03-29T11:16:58.765Z,99717.81
2023-03-29T11:18:49.714Z,99709.59
2023-03-29T11:20:30.242Z,99694.91
2023-03-29T11:22:08.794Z,99680.28
2023-03-29T11:23:49.882Z,99702.88
2023-03-29T11:25:45.302Z,99703.69
2023-03-29T11:27:29.942Z,99696.44
2023-03-29T11:29:10.412Z,99692.34
2023-03-29T11:30:49.770Z,99694.91
2023-03-29T11:32:30.668Z,99693.09
2023-03-29T11:34:20.548Z,99695.50
2023-03-29T11:35:58.261Z,99687.09
2023-03-29T11:37:36.877Z,99684.34
2023-03-29T11:39:23.789Z,99693.00
2023-03-29T11:41:03.487Z,99682.31
2023-03-29T11:42:44.203Z,99681.41
2023-03-29T11:44:21.560Z,99698.00
2023-03-29T11:45:58.122Z,99656.19
2023-03-29T11:47:38.312Z,99664.50
2023-03-29T11:49:19.572Z,99693.69
2023-03-29T11:50:57.845Z,99695.28
2023-03-29T11:52:37.869Z,99679.06
2023-03-29T11:54:18.858Z,99661.50
2023-03-29T11:55:53.895Z,99662.88
2023-03-29T11:57:32.201Z,99664.56
2023-03-29T11:59:13.960Z,99674.16
2023-03-29T12:00:50.050Z,99669.19
2023-03-29T12:02:29.713Z,99674.03
2023-03-29T12:04:08.661Z,99661.50
2023-03-29T12:05:46.931Z,99661.56
2023-03-29T12:07:26.951Z,99666.94
2023-03-29T12:09:05.446Z,99658.41
2023-03-29T12:10:43.170Z,99675.50
2023-03-29T12:12:23.394Z,99674.59
2023-03-29T12:14:02.470Z,99665.94
2023-03-29T12:15:42.441Z,99655.59
2023-03-29T12:17:20.656Z,99657.75
2023-03-29T12:18:56.900Z,99656.63
2023-03-29T12:20:34.053Z,99673.34
2023-03-29T12:22:11.324Z,99669.03
2023-03-29T12:23:50.420Z,99660.38
2023-03-29T12:25:29.495Z,99659.69
2023-03-29T12:27:20.837Z,99653.56
2023-03-29T12:29:16.433Z,99673.94
2023-03-29T12:30:59.414Z,99656.97
2023-03-29T12:32:46.785Z,99664.91
2023-03-29T12:35:04.182Z,99674.09
2023-03-29T12:37:27.565Z,99647.94
2023-03-29T12:39:23.328Z,99657.97
2023-03-29T12:41:19.246Z,99666.47
2023-03-29T12:43:20.519Z,99632.75
2023-03-29T12:45:19.531Z,99650.78
2023-03-29T12:46:54.970Z,99670.22
2023-03-29T12:48:31.982Z,99661.19
2023-03-29T12:50:05.477Z,99658.50
2023-03-29T12:51:43.575Z,99659.84
2023-03-29T12:53:23.402Z,99651.75
2023-03-29T12:54:58.346Z,99649.78
2023-03-29T12:56:41.468Z,99662.88
2023-03-29T12:58:27.930Z,99647.97
2023-03-29T13:00:12.425Z,99656.16
2023-03-29T13:01:59.514Z,99655.44
2023-03-29T13:03:44.289Z,99653.56
2023-03-29T13:05:38.596Z,99652.38
2023-03-29T13:07:16.700Z,99643.75
2023-03-29T13:09:00.479Z,99654.03
2023-03-29T13:10:40.809Z,99644.31
2023-03-29T13:12:23.992Z,99659.09
2023-03-29T13:13:57.963Z,99657.50
2023-03-29T13:15:35.382Z,99655.72
2023-03-29T13:17:18.515Z,99663.38
2023-03-29T13:19:07.212Z,99643.06
2023-03-29T13:20:48.123Z,99653.81
2023-03-29T13:22:34.554Z,99661.13
2023-03-29T13:24:25.018Z,99642.72
2023-03-29T13:26:27.404Z,99663.81
2023-03-29T13:28:09.434Z,99652.56
2023-03-29T13:29:56.333Z,99651.00
2023-03-29T13:31:37.335Z,99660.88
2023-03-29T13:33:21.525Z,99664.25
2023-03-29T13:35:01.109Z,99672.13
2023-03-29T13:36:50.724Z,99662.56
2023-03-29T13:38:31.421Z,99658.56
2023-03-29T13:40:29.553Z,99670.28
2023-03-29T13:42:20.707Z,99667.03
2023-03-29T13:43:55.518Z,99665.84
2023-03-29T13:45:30.199Z,99652.22
2023-03-29T13:47:06.692Z,99654.56
2023-03-29T13:48:54.892Z,99660.56
2023-03-29T13:50:36.717Z,99654.81
2023-03-29T13:52:16.684Z,99642.34
2023-03-29T13:53:54.295Z,99641.63
2023-03-29T13:55:33.314Z,99648.81
2023-03-29T13:57:14.758Z,99649.72
2023-03-29T13:58:52.763Z,99643.00
2023-03-29T14:00:30.635Z,99657.28
2023-03-29T14:02:06.765Z,99636.16
2023-03-29T14:03:45.959Z,99661.44
2023-03-29T14:05:27.789Z,99649.81
2023-03-29T14:07:02.461Z,99666.41
2023-03-29T14:08:41.643Z,99640.91
2023-03-29T14:10:18.034Z,99665.44
2023-03-29T14:11:52.890Z,99654.84
2023-03-29T14:13:27.231Z,99653.28
2023-03-29T14:15:03.847Z,99636.75
2023-03-29T14:16:40.116Z,99660.56
2023-03-29T14:18:16.487Z,99636.06
2023-03-29T14:19:50.770Z,99621.22
2023-03-29T14:21:24.179Z,99621.47
2023-03-29T14:22:57.565Z,99652.25
2023-03-29T14:24:39.495Z,99639.06
2023-03-29T14:26:18.687Z,99651.75
2023-03-29T14:27:53.244Z,99656.47
2023-03-29T14:29:32.106Z,99659.84
2023-03-29T14:31:07.926Z,99673.34
2023-03-29T14:32:41.429Z,99659.00
2023-03-29T14:34:17.454Z,99660.56
2023-03-29T14:35:51.988Z,99663.22
2023-03-29T14:37:28.191Z,99650.28
2023-03-29T14:39:05.971Z,99664.69
2023-03-29T14:40:39.462Z,99657.69
2023-03-29T14:42:20.871Z,99662.09
2023-03-29T14:43:55.874Z,99661.06
2023-03-29T14:45:29.171Z,99656.72
2023-03-29T14:47:03.834Z,99650.47
2023-03-29T14:48:38.830Z,99653.72
2023-03-29T14:50:19.888Z,99671.28
2023-03-29T14:51:54.862Z,99663.84
2023-03-29T14:53:30.814Z,99654.75
2023-03-29T14:55:05.241Z,99657.97
2023-03-29T14:56:38.678Z,99640.41
2023-03-29T14:58:18.671Z,99668.88
2023-03-29T14:59:56.489Z,99657.72
2023-03-29T15:01:29.873Z,99665.53
2023-03-29T15:03:03.898Z,99659.00
2023-03-29T15:04:37.624Z,99672.94
2023-03-29T15:06:12.962Z,99665.75
2023-03-29T15:07:46.823Z,99658.94
2023-03-29T15:09:25.555Z,99658.81
2023-03-29T15:10:59.515Z,99662.47
2023-03-29T15:12:33.810Z,99662.75
2023-03-29T15:14:09.817Z,99669.25
2023-03-29T15:15:44.974Z,99668.56
2023-03-29T15:17:43.055Z,99677.81
2023-03-29T15:19:29.335Z,99664.59
2023-03-29T15:21:03.385Z,99674.78
2023-03-29T15:22:39.248Z,99675.06
2023-03-29T15:24:22.291Z,99653.25
2023-03-29T15:25:58.782Z,99663.38
2023-03-29T15:27:42.611Z,99668.53
2023-03-29T15:29:23.535Z,99668.53
2023-03-29T15:32:39.941Z,99661.16
2023-03-29T15:34:16.107Z,99675.66
2023-03-29T15:35:52.090Z,99675.06
2023-03-29T15:37:26.026Z,99677.00
2023-03-29T15:38:59.752Z,99674.34
2023-03-29T15:40:33.294Z,99679.44
2023-03-29T15:42:07.759Z,99656.31
2023-03-29T15:43:41.656Z,99684.81
2023-03-29T15:45:17.222Z,99675.56
2023-03-29T15:46:52.146Z,99682.63
2023-03-29T15:48:27.860Z,99688.63
2023-03-29T15:50:01.749Z,99690.44
2023-03-29T15:51:35.025Z,99693.50
2023-03-29T15:53:15.214Z,99692.88
2023-03-29T15:54:49.309Z,99685.25
2023-03-29T15:56:23.591Z,99686.13
2023-03-29T15:57:59.565Z,99684.09
2023-03-29T15:59:33.753Z,99709.81
2023-03-29T16:01:19.174Z,99695.09
2023-03-29T16:02:57.604Z,99699.00
2023-03-29T16:04:30.882Z,99706.19
2023-03-29T16:06:04.648Z,99685.34
2023-03-29T16:07:37.995Z,99699.41
2023-03-29T16:09:13.078Z,99695.97
2023-03-29T16:10:47.236Z,99698.06
2023-03-29T16:12:20.559Z,99699.06
2023-03-29T16:13:53.854Z,99700.03
2023-03-29T16:15:29.195Z,99698.56
2023-03-29T16:17:03.269Z,99717.81
2023-03-29T16:18:38.793Z,99709.13
2023-03-29T16:20:15.001Z,99711.88
2023-03-29T16:21:49.716Z,99713.63
2023-03-29T16:23:23.126Z,99719.75
2023-03-29T16:24:56.591Z,99719.00
2023-03-29T16:26:30.426Z,99707.72
2023-03-29T16:28:05.066Z,99720.94
2023-03-29T16:29:38.189Z,99714.91
2023-03-29T16:31:12.717Z,99709.78
2023-03-29T16:32:46.231Z,99718.59
2023-03-29T16:34:23.076Z,99720.41
2023-03-29T16:36:01.318Z,99719.75
2023-03-29T16:37:35.113Z,99713.75
2023-03-29T16:39:08.523Z,99732.31
2023-03-29T16:40:43.149Z,99721.00
2023-03-29T16:42:16.571Z,99731.41
2023-03-29T16:43:50.075Z,99737.59
2023-03-29T16:45:23.761Z,99727.94
2023-03-29T16:46:58.496Z,99729.88
2023-03-29T16:48:32.062Z,99732.66
2023-03-29T16:50:08.321Z,99730.13
2023-03-29T16:51:41.596Z,99738.94
2023-03-29T16:53:15.395Z,99730.25
2023-03-29T16:54:48.774Z,99735.59
2023-03-29T16:56:22.840Z,99739.25
2023-03-29T16:57:59.235Z,99745.50
2023-03-29T16:59:34.207Z,99746.41
2023-03-29T17:01:11.866Z,99743.03
2023-03-29T17:02:45.597Z,99748.41
2023-03-29T17:04:18.836Z,99750.22
2023-03-29T17:05:55.178Z,99748.50
2023-03-29T17:07:29.587Z,99755.53
2023-03-29T17:09:03.362Z,99751.13
2023-03-29T17:10:37.057Z,99761.81
2023-03-29T17:12:10.558Z,99748.69
2023-03-29T17:13:43.866Z,99746.03
2023-03-29T17:15:17.612Z,99752.19
2023-03-29T17:16:51.054Z,99752.19
2023-03-29T17:18:26.598Z,99762.72
2023-03-29T17:19:59.944Z,99757.50
2023-03-29T17:21:34.520Z,99760.22
2023-03-29T17:23:08.996Z,99762.88
2023-03-29T17:24:43.145Z,99773.44
2023-03-29T17:26:16.466Z,99766.53
2023-03-29T17:27:50.769Z,99764.84
2023-03-29T17:29:24.228Z,99773.69
2023-03-29T17:30:58.376Z,99765.06
2023-03-29T17:32:31.808Z,99780.88
2023-03-29T17:34:05.086Z,99779.22
2023-03-29T17:35:38.228Z,99772.31
2023-03-29T17:37:13.335Z,99786.31
2023-03-29T17:38:48.930Z,99775.94
2023-03-29T17:40:22.594Z,99789.91
2023-03-29T17:41:55.875Z,99797.84
2023-03-29T17:43:30.197Z,99803.13
2023-03-29T17:45:03.938Z,99798.78
2023-03-29T17:46:37.924Z,99802.34
2023-03-29T17:48:11.483Z,99797.13
2023-03-29T17:49:45.422Z,99809.41
2023-03-29T17:51:19.671Z,99814.75
2023-03-29T17:52:54.413Z,99806.06
2023-03-29T17:54:27.603Z,99818.38
2023-03-29T17:56:01.364Z,99814.94
2023-03-29T17:57:34.832Z,99811.53
2023-03-29T17:59:08.302Z,99827.31
2023-03-29T18:00:41.513Z,99822.13
2023-03-29T18:02:18.060Z,99832.69
2023-03-29T18:03:51.285Z,99831.00
2023-03-29T18:05:24.728Z,99830.16
2023-03-29T18:06:57.979Z,99835.50
2023-03-29T18:08:33.398Z,99831.13
2023-03-29T18:10:07.846Z,99832.03
2023-03-29T18:11:41.423Z,99839.94
2023-03-29T18:13:17.594Z,99833.94
2023-03-29T18:14:51.248Z,99843.59
2023-03-29T18:16:24.690Z,99841.88
2023-03-29T18:17:57.956Z,99848.06
2023-03-29T18:19:31.407Z,99850.72
2023-03-29T18:21:07.142Z,99847.22
2023-03-29T18:22:41.393Z,99842.91
2023-03-29T18:24:16.717Z,99849.06
2023-03-29T18:25:49.925Z,99844.72
2023-03-29T18:27:23.596Z,99845.63
2023-03-29T18:28:57.002Z,99850.91
2023-03-29T18:30:30.318Z,99847.41
2023-03-29T18:32:03.645Z,99843.09
2023-03-29T18:33:37.954Z,99850.97
2023-03-29T18:35:11.759Z,99852.78
2023-03-29T18:36:45.045Z,99854.53
2023-03-29T18:38:18.736Z,99858.16
2023-03-29T18:39:53.931Z,99858.19
2023-03-29T18:41:27.164Z,99845.09
2023-03-29T18:43:00.599Z,99851.25
2023-03-29T18:44:33.823Z,99847.81
2023-03-29T18:46:07.925Z,99853.94
2023-03-29T18:47:41.235Z,99850.44
2023-03-29T18:49:14.414Z,99859.22
2023-03-29T18:50:48.096Z,99858.41
2023-03-29T18:52:21.628Z,99854.06
2023-03-29T18:53:55.647Z,99856.75
2023-03-29T18:55:31.224Z,99862.00
2023-03-29T18:57:04.615Z,99860.28
2023-03-29T18:58:38.129Z,99857.75
2023-03-29T19:00:13.025Z,99857.84
2023-03-29T19:01:46.502Z,99864.88
2023-03-29T19:03:19.721Z,99867.53
2023-03-29T19:04:53.133Z,99851.88
2023-03-29T19:06:26.521Z,99861.47
2023-03-29T19:07:59.797Z,99850.19
2023-03-29T19:09:33.136Z,99855.47
2023-03-29T19:11:11.493Z,99860.72
2023-03-29T19:12:44.742Z,99848.56
2023-03-29T19:14:23.550Z,99865.16
2023-03-29T19:15:56.834Z,99853.88
2023-03-29T19:17:31.323Z,99863.44
2023-03-29T19:19:05.853Z,99854.75
2023-03-29T19:20:39.913Z,99859.97
2023-03-29T19:22:13.022Z,99856.47
2023-03-29T19:23:46.878Z,99857.38
2023-03-29T19:25:20.414Z,99854.78
2023-03-29T19:26:56.577Z,99859.13
2023-03-29T19:28:30.128Z,99852.19
2023-03-29T19:30:03.861Z,99860.03
2023-03-29T19:31:37.972Z,99864.41
2023-03-29T19:33:11.349Z,99871.38
2023-03-29T19:34:44.574Z,99857.44
2023-03-29T19:36:18.074Z,99865.28
2023-03-29T19:37:51.240Z,99858.31
2023-03-29T19:39:26.807Z,99860.91
2023-03-29T19:41:00.090Z,99871.34
2023-03-29T19:42:36.289Z,99867.88
2023-03-29T19:44:09.663Z,99862.66
2023-03-29T19:45:43.075Z,99859.16
2023-03-29T19:47:16.515Z,99869.59
2023-03-29T19:48:51.857Z,99867.88
2023-03-29T19:50:26.364Z,99862.63
2023-03-29T19:51:59.666Z,99868.72
2023-03-29T19:53:33.692Z,99863.50
2023-03-29T19:55:08.339Z,99866.09
2023-03-29T19:56:42.690Z,99861.75
2023-03-29T19:58:17.545Z,99855.63
2023-03-29T19:59:50.916Z,99864.34
2023-03-29T20:01:27.321Z,99868.69
2023-03-29T20:03:01.162Z,99864.31
2023-03-29T20:04:34.687Z,99873.03
2023-03-29T20:06:08.388Z,99862.53
2023-03-29T20:07:41.994Z,99869.53
2023-03-29T20:09:16.378Z,99867.78
2023-03-29T20:10:49.714Z,99866.00
2023-03-29T20:12:22.858Z,99871.25
2023-03-29T20:13:57.584Z,99876.47
2023-03-29T20:15:30.699Z,99873.84
2023-03-29T20:17:04.593Z,99863.41
2023-03-29T20:18:38.724Z,99866.06
2023-03-29T20:20:14.220Z,99857.31
2023-03-29T20:21:50.713Z,99871.28
2023-03-29T20:23:23.969Z,99875.59
2023-03-29T20:24:57.426Z,99869.50
2023-03-29T20:26:31.532Z,99865.13
2023-03-29T20:28:04.806Z,99868.63
2023-03-29T20:29:39.416Z,99871.22
2023-03-29T20:31:12.742Z,99869.47
2023-03-29T20:32:47.334Z,99857.25
2023-03-29T20:34:20.516Z,99853.81
2023-03-29T20:35:53.856Z,99857.25
2023-03-29T20:37:27.264Z,99853.75
2023-03-29T20:39:01.448Z,99859.84
2023-03-29T20:40:37.291Z,99859.81
2023-03-29T20:42:11.276Z,99852.84
2023-03-29T20:43:46.228Z,99851.91
2023-03-29T20:45:20.985Z,99847.59
2023-03-29T20:47:03.910Z,99861.50
2023-03-29T20:48:38.362Z,99864.94
2023-03-29T20:50:12.293Z,99858.88
2023-03-29T20:51:46.066Z,99862.34
2023-03-29T20:53:20.537Z,99859.72